createdAt,value
2022-10-17T00:00:47.658Z,45.60
2022-10-17T00:03:17.711Z,45.60
2022-10-17T00:05:48.667Z,45.50
2022-10-17T00:08:19.177Z,45.50
2022-10-17T00:10:58.374Z,45.50
2022-10-17T00:13:28.535Z,45.50
2022-10-17T00:15:59.322Z,45.50
2022-10-17T00:18:29.160Z,45.50
2022-10-17T00:20:59.085Z,45.50
2022-10-17T00:23:29.831Z,45.50
2022-10-17T00:26:01.215Z,45.50
2022-10-17T00:28:31.190Z,45.40
2022-10-17T00:31:06.148Z,45.50
2022-10-17T00:33:36.657Z,45.50
2022-10-17T00:36:09.669Z,45.50
2022-10-17T00:38:39.670Z,45.50
2022-10-17T00:41:10.308Z,45.50
2022-10-17T00:43:53.454Z,45.50
2022-10-17T00:46:24.006Z,45.40
2022-10-17T00:48:55.176Z,45.40
2022-10-17T00:51:34.094Z,45.40
2022-10-17T00:54:04.064Z,45.40
2022-10-17T00:56:34.142Z,45.30
2022-10-17T01:01:42.283Z,45.30
2022-10-17T01:04:12.282Z,45.40
2022-10-17T01:06:42.400Z,45.40
2022-10-17T01:09:12.472Z,45.50
2022-10-17T01:11:47.048Z,45.30
2022-10-17T01:14:56.125Z,36.00
2022-10-17T01:17:32.282Z,31.30
2022-10-17T01:20:30.988Z,44.00
2022-10-17T01:23:07.077Z,44.10
2022-10-17T01:25:46.508Z,43.00
2022-10-17T01:31:19.583Z,42.50
2022-10-17T01:34:14.616Z,43.10
2022-10-17T01:37:06.838Z,42.60
2022-10-17T01:39:50.474Z,42.80
2022-10-17T01:42:49.260Z,43.20
2022-10-17T01:45:27.011Z,43.40
2022-10-17T01:47:57.258Z,43.60
2022-10-17T01:50:32.621Z,43.60
2022-10-17T01:53:16.054Z,43.70
2022-10-17T01:55:47.177Z,43.80
2022-10-17T01:58:39.336Z,43.80
2022-10-17T02:01:09.732Z,43.80
2022-10-17T02:03:40.381Z,43.80
2022-10-17T02:06:10.246Z,43.80
2022-10-17T02:08:47.770Z,43.80
2022-10-17T02:11:25.527Z,43.90
2022-10-17T02:14:40.118Z,43.80
2022-10-17T02:17:34.330Z,43.80
2022-10-17T02:20:29.949Z,43.90
2022-10-17T02:23:15.293Z,43.80
2022-10-17T02:26:11.431Z,43.90
2022-10-17T02:28:46.563Z,43.90
2022-10-17T02:31:24.253Z,44.00
2022-10-17T02:33:58.491Z,43.90
2022-10-17T02:36:32.419Z,44.00
2022-10-17T02:39:03.560Z,43.90
2022-10-17T02:41:33.825Z,44.00
2022-10-17T02:44:03.932Z,44.00
2022-10-17T02:46:34.397Z,44.00
2022-10-17T02:49:29.688Z,44.00
2022-10-17T02:52:12.862Z,44.00
2022-10-17T02:55:00.077Z,44.10
2022-10-17T02:57:54.462Z,44.10
2022-10-17T03:00:24.517Z,44.10
2022-10-17T03:02:55.138Z,44.10
2022-10-17T03:05:26.872Z,44.10
2022-10-17T03:07:57.164Z,44.10
2022-10-17T03:10:27.836Z,44.10
2022-10-17T03:12:57.871Z,44.10
2022-10-17T03:15:28.439Z,44.10
2022-10-17T03:17:58.348Z,44.10
2022-10-17T03:20:28.281Z,44.20
2022-10-17T03:22:58.173Z,44.20
2022-10-17T03:25:28.505Z,44.20
2022-10-17T03:28:01.502Z,44.20
2022-10-17T03:30:31.601Z,44.20
2022-10-17T03:33:01.784Z,44.20
2022-10-17T03:35:31.792Z,44.10
2022-10-17T03:38:02.337Z,44.10
2022-10-17T03:40:33.236Z,44.10
2022-10-17T03:43:03.725Z,44.10
2022-10-17T03:45:33.646Z,44.10
2022-10-17T03:48:04.484Z,44.00
2022-10-17T03:50:34.447Z,44.00
2022-10-17T03:53:05.404Z,44.00
2022-10-17T03:55:38.105Z,44.00
2022-10-17T03:58:08.156Z,43.90
2022-10-17T04:00:38.618Z,44.00
2022-10-17T04:03:08.525Z,44.00
2022-10-17T04:05:39.711Z,44.00
2022-10-17T04:08:09.807Z,44.00
2022-10-17T04:11:02.370Z,44.00
2022-10-17T04:13:33.085Z,44.10
2022-10-17T04:16:04.631Z,44.20
2022-10-17T04:18:35.250Z,44.20
2022-10-17T04:21:06.912Z,44.30
2022-10-17T04:23:37.139Z,44.30
2022-10-17T04:26:16.901Z,44.40
2022-10-17T04:28:47.091Z,44.50
2022-10-17T04:31:18.202Z,44.50
2022-10-17T04:34:20.797Z,44.50
2022-10-17T04:36:52.939Z,44.60
2022-10-17T04:39:22.927Z,44.70
2022-10-17T04:41:53.126Z,44.60
2022-10-17T04:44:23.210Z,44.60
2022-10-17T04:46:55.389Z,44.70
2022-10-17T04:49:25.699Z,44.60
2022-10-17T04:52:01.270Z,44.70
2022-10-17T04:54:40.539Z,44.70
2022-10-17T04:57:12.718Z,44.70
2022-10-17T04:59:46.376Z,44.90
2022-10-17T05:02:26.176Z,44.90
2022-10-17T05:04:56.299Z,44.90
2022-10-17T05:07:26.752Z,45.00
2022-10-17T05:10:03.394Z,45.00
2022-10-17T05:12:34.763Z,45.00
2022-10-17T05:15:04.954Z,45.00
2022-10-17T05:17:35.901Z,45.00
2022-10-17T05:20:06.308Z,45.10
2022-10-17T05:22:39.765Z,45.10
2022-10-17T05:25:13.034Z,45.10
2022-10-17T05:27:43.153Z,45.10
2022-10-17T05:30:13.391Z,45.10
2022-10-17T05:32:43.956Z,45.20
2022-10-17T05:35:13.849Z,45.20
2022-10-17T05:37:44.315Z,45.20
2022-10-17T05:40:14.646Z,45.30
2022-10-17T05:42:52.033Z,45.40
2022-10-17T05:45:24.913Z,45.40
2022-10-17T05:47:55.118Z,45.30
2022-10-17T05:50:26.388Z,45.30
2022-10-17T05:53:06.177Z,45.20
2022-10-17T05:55:42.083Z,45.40
2022-10-17T05:58:21.729Z,45.70
2022-10-17T06:01:10.652Z,45.60
2022-10-17T06:03:42.716Z,45.70
2022-10-17T06:06:13.892Z,45.50
2022-10-17T06:08:46.344Z,45.40
2022-10-17T06:11:20.669Z,45.40
2022-10-17T06:13:50.610Z,45.20
2022-10-17T06:16:26.546Z,45.10
2022-10-17T06:18:57.287Z,45.00
2022-10-17T06:21:28.043Z,44.90
2022-10-17T06:24:09.799Z,44.70
2022-10-17T06:26:42.958Z,44.60
2022-10-17T06:29:16.168Z,44.40
2022-10-17T06:31:50.322Z,44.40
2022-10-17T06:34:22.225Z,44.20
2022-10-17T06:36:52.773Z,44.00
2022-10-17T06:39:23.341Z,44.00
2022-10-17T06:42:01.951Z,43.80
2022-10-17T06:45:00.931Z,43.80
2022-10-17T06:47:46.184Z,43.60
2022-10-17T06:50:42.185Z,43.60
2022-10-17T06:53:32.151Z,43.40
2022-10-17T06:56:20.576Z,43.30
2022-10-17T06:59:04.718Z,43.10
2022-10-17T07:01:40.698Z,42.90
2022-10-17T07:04:14.544Z,43.00
2022-10-17T07:06:45.073Z,42.60
2022-10-17T07:09:21.164Z,27.70
2022-10-17T07:11:51.126Z,27.10
2022-10-17T07:14:22.635Z,32.60
2022-10-17T07:16:53.397Z,27.80
2022-10-17T07:19:26.852Z,34.40
2022-10-17T07:21:56.804Z,35.70
2022-10-17T07:24:27.101Z,35.90
2022-10-17T07:27:05.286Z,36.60
2022-10-17T07:29:35.540Z,37.00
2022-10-17T07:32:21.206Z,37.60
2022-10-17T07:34:51.176Z,37.50
2022-10-17T07:37:21.398Z,37.70
2022-10-17T07:39:57.778Z,38.10
2022-10-17T07:42:29.695Z,38.20
2022-10-17T07:45:00.512Z,38.40
2022-10-17T07:47:32.719Z,38.60
2022-10-17T07:50:04.881Z,38.80
2022-10-17T07:52:35.112Z,38.80
2022-10-17T07:55:05.207Z,38.80
2022-10-17T07:57:35.848Z,38.80
2022-10-17T08:00:06.664Z,39.30
2022-10-17T08:02:42.476Z,39.30
2022-10-17T08:05:12.478Z,39.40
2022-10-17T08:07:43.134Z,39.40
2022-10-17T08:10:14.677Z,39.50
2022-10-17T08:12:45.387Z,39.40
2022-10-17T08:15:15.502Z,39.80
2022-10-17T08:17:46.555Z,40.00
2022-10-17T08:20:16.724Z,40.30
2022-10-17T08:23:08.181Z,40.60
2022-10-17T08:25:42.678Z,40.90
2022-10-17T08:28:12.673Z,41.10
2022-10-17T08:30:42.857Z,41.30
2022-10-17T08:33:13.614Z,41.10
2022-10-17T08:35:44.318Z,41.40
2022-10-17T08:38:15.277Z,41.40
2022-10-17T08:40:47.140Z,42.00
2022-10-17T08:43:33.286Z,42.40
2022-10-17T08:46:07.974Z,42.40
2022-10-17T08:48:46.284Z,42.10
2022-10-17T08:51:29.941Z,41.80
2022-10-17T08:54:13.871Z,41.90
2022-10-17T08:56:49.556Z,41.80
2022-10-17T08:59:31.281Z,41.50
2022-10-17T09:02:05.931Z,41.60
2022-10-17T09:05:04.599Z,41.70
2022-10-17T09:07:46.595Z,41.70
2022-10-17T09:10:39.620Z,41.80
2022-10-17T09:13:28.141Z,42.10
2022-10-17T09:16:16.598Z,41.90
2022-10-17T09:19:00.277Z,41.90
2022-10-17T09:21:30.024Z,35.70
2022-10-17T09:24:09.509Z,27.30
2022-10-17T09:26:41.147Z,24.90
2022-10-17T09:29:43.690Z,33.70
2022-10-17T09:32:25.645Z,38.20
2022-10-17T09:34:55.920Z,38.10
2022-10-17T09:37:31.384Z,38.40
2022-10-17T09:40:01.389Z,38.50
2022-10-17T09:42:31.625Z,39.00
2022-10-17T09:45:25.910Z,39.40
2022-10-17T09:47:56.730Z,39.10
2022-10-17T09:50:34.809Z,38.00
2022-10-17T09:53:29.054Z,37.30
2022-10-17T09:56:00.999Z,36.90
2022-10-17T09:58:59.866Z,35.60
2022-10-17T10:01:32.198Z,33.90
2022-10-17T10:04:18.570Z,33.80
2022-10-17T10:07:05.852Z,31.10
2022-10-17T10:09:38.132Z,35.00
2022-10-17T10:12:18.043Z,35.00
2022-10-17T10:14:48.681Z,34.80
2022-10-17T10:17:43.035Z,34.80
2022-10-17T10:20:36.857Z,33.40
2022-10-17T10:23:26.814Z,29.20
2022-10-17T10:26:01.389Z,28.20
2022-10-17T10:28:37.104Z,29.90
2022-10-17T10:31:10.448Z,32.00
2022-10-17T10:33:47.016Z,32.30
2022-10-17T10:36:22.962Z,32.30
2022-10-17T10:38:53.761Z,32.40
2022-10-17T10:41:23.623Z,32.30
2022-10-17T10:43:53.804Z,32.40
2022-10-17T10:46:24.745Z,32.20
2022-10-17T10:48:59.723Z,32.20
2022-10-17T10:51:34.370Z,32.40
2022-10-17T10:54:13.313Z,32.60
2022-10-17T10:56:51.153Z,32.30
2022-10-17T10:59:41.581Z,32.50
2022-10-17T11:02:20.205Z,32.50
2022-10-17T11:05:11.834Z,32.80
2022-10-17T11:08:07.837Z,32.80
2022-10-17T11:11:19.115Z,33.00
2022-10-17T11:14:04.636Z,33.10
2022-10-17T11:17:00.727Z,33.50
2022-10-17T11:19:42.725Z,33.80
2022-10-17T11:22:31.573Z,34.00
2022-10-17T11:25:05.874Z,34.20
2022-10-17T11:27:39.290Z,34.40
2022-10-17T11:30:11.018Z,34.60
2022-10-17T11:32:45.904Z,34.70
2022-10-17T11:35:21.257Z,34.90
2022-10-17T11:38:11.690Z,35.00
2022-10-17T11:40:43.311Z,35.20
2022-10-17T11:43:16.584Z,35.30
2022-10-17T11:45:47.215Z,35.50
2022-10-17T11:48:33.424Z,35.50
2022-10-17T11:54:29.297Z,35.70
2022-10-17T11:57:28.568Z,35.80
2022-10-17T12:00:37.926Z,35.90
2022-10-17T12:03:22.770Z,36.00
2022-10-17T12:06:00.980Z,36.20
2022-10-17T12:08:48.760Z,36.30
2022-10-17T12:11:43.084Z,36.30
2022-10-17T12:14:41.437Z,36.50
2022-10-17T12:17:31.798Z,36.60
2022-10-17T12:20:26.476Z,36.70
2022-10-17T12:23:02.673Z,36.70
2022-10-17T12:25:34.955Z,36.80
2022-10-17T12:28:08.105Z,36.90
2022-10-17T12:30:40.719Z,37.00
2022-10-17T12:33:24.398Z,37.00
2022-10-17T12:36:13.634Z,37.10
2022-10-17T12:38:45.750Z,37.10
2022-10-17T12:41:19.270Z,37.20
2022-10-17T12:43:58.130Z,37.20
2022-10-17T12:46:49.841Z,37.20
2022-10-17T12:49:42.059Z,37.20
2022-10-17T12:52:33.381Z,37.20
2022-10-17T12:55:34.323Z,37.20
2022-10-17T12:58:24.299Z,37.20
2022-10-17T13:01:23.817Z,37.30
2022-10-17T13:03:49.408Z,37.40
2022-10-17T13:06:24.615Z,37.30
2022-10-17T13:09:20.672Z,37.40
2022-10-17T13:11:50.837Z,37.40
2022-10-17T13:14:22.126Z,37.50
2022-10-17T13:17:00.404Z,37.50
2022-10-17T13:19:44.107Z,37.50
2022-10-17T13:22:19.865Z,37.50
2022-10-17T13:24:50.711Z,37.50
2022-10-17T13:27:30.450Z,37.50
2022-10-17T13:30:02.906Z,37.50
2022-10-17T13:32:40.780Z,37.60
2022-10-17T13:35:11.147Z,37.60
2022-10-17T13:37:46.709Z,37.60
2022-10-17T13:40:40.789Z,37.70
2022-10-17T13:43:19.441Z,37.70
2022-10-17T13:46:02.212Z,37.70
2022-10-17T13:48:38.344Z,37.70
2022-10-17T13:51:11.161Z,37.80
2022-10-17T13:53:43.716Z,37.70
2022-10-17T13:56:30.854Z,37.80
2022-10-17T13:59:03.253Z,37.80
2022-10-17T14:01:33.864Z,37.80
2022-10-17T14:04:14.114Z,37.80
2022-10-17T14:06:52.120Z,37.90
2022-10-17T14:09:30.994Z,37.80
2022-10-17T14:12:17.746Z,37.90
2022-10-17T14:15:09.712Z,37.90
2022-10-17T14:17:41.216Z,37.90
2022-10-17T14:23:32.141Z,37.90
2022-10-17T14:26:19.453Z,37.90
2022-10-17T14:29:09.300Z,38.00
2022-10-17T14:31:39.348Z,37.90
2022-10-17T14:34:39.576Z,38.00
2022-10-17T14:37:25.729Z,38.00
2022-10-17T14:39:58.368Z,38.00
2022-10-17T14:42:28.405Z,38.10
2022-10-17T14:45:05.042Z,38.10
2022-10-17T14:47:50.515Z,38.10
2022-10-17T14:50:28.707Z,38.10
2022-10-17T14:53:28.758Z,38.10
2022-10-17T14:56:00.474Z,38.10
2022-10-17T14:58:34.496Z,38.10
2022-10-17T15:01:04.435Z,38.10
2022-10-17T15:03:34.436Z,38.20
2022-10-17T15:06:17.300Z,38.10
2022-10-17T15:08:48.322Z,38.20
2022-10-17T15:11:18.771Z,38.20
2022-10-17T15:13:48.839Z,38.20
2022-10-17T15:16:34.284Z,38.30
2022-10-17T15:19:04.754Z,38.30
2022-10-17T15:21:39.592Z,38.30
2022-10-17T15:24:13.874Z,38.40
2022-10-17T15:26:44.235Z,38.50
2022-10-17T15:29:17.657Z,38.50
2022-10-17T15:31:47.166Z,38.60
2022-10-17T15:34:17.682Z,38.60
2022-10-17T15:36:52.505Z,38.60
2022-10-17T15:39:22.387Z,38.60
2022-10-17T15:41:52.511Z,39.20
2022-10-17T15:44:22.492Z,38.60
2022-10-17T15:46:52.762Z,38.70
2022-10-17T15:49:22.700Z,39.00
2022-10-17T15:51:55.095Z,39.10
2022-10-17T15:54:25.306Z,39.70
2022-10-17T15:56:56.148Z,42.30
2022-10-17T15:59:35.514Z,43.60
2022-10-17T16:02:05.566Z,44.20
2022-10-17T16:04:35.441Z,44.30
2022-10-17T16:07:05.381Z,44.40
2022-10-17T16:09:36.146Z,44.60
2022-10-17T16:12:09.103Z,45.30
2022-10-17T16:14:48.229Z,44.80
2022-10-17T16:17:19.407Z,44.70
2022-10-17T16:19:49.729Z,44.90
2022-10-17T16:22:23.061Z,44.80
2022-10-17T16:24:59.460Z,44.80
2022-10-17T16:27:29.342Z,44.70
2022-10-17T16:29:59.257Z,44.80
2022-10-17T16:32:29.419Z,45.20
2022-10-17T16:35:01.112Z,45.50
2022-10-17T16:37:31.083Z,45.30
2022-10-17T16:40:01.774Z,45.30
2022-10-17T16:42:31.820Z,45.30
2022-10-17T16:45:02.068Z,45.30
2022-10-17T16:47:32.130Z,45.30
2022-10-17T16:50:02.159Z,45.30
2022-10-17T16:52:32.355Z,45.80
2022-10-17T16:55:02.737Z,45.30
2022-10-17T16:57:32.670Z,45.40
2022-10-17T17:00:02.602Z,45.40
2022-10-17T17:02:32.782Z,45.40
2022-10-17T17:05:03.027Z,45.40
2022-10-17T17:07:33.245Z,45.50
2022-10-17T17:10:03.416Z,45.40
2022-10-17T17:12:37.233Z,45.40
2022-10-17T17:15:07.475Z,45.40
2022-10-17T17:17:49.668Z,45.20
2022-10-17T17:20:22.267Z,45.50
2022-10-17T17:22:53.423Z,45.40
2022-10-17T17:25:24.274Z,45.50
2022-10-17T17:27:54.137Z,45.40
2022-10-17T17:30:25.510Z,45.50
2022-10-17T17:32:55.532Z,45.50
2022-10-17T17:35:25.619Z,45.60
2022-10-17T17:37:55.560Z,45.60
2022-10-17T17:40:51.757Z,45.60
2022-10-17T17:43:21.614Z,45.60
2022-10-17T17:45:51.609Z,45.60
2022-10-17T17:48:21.544Z,45.50
2022-10-17T17:50:51.486Z,45.50
2022-10-17T17:53:21.431Z,45.50
2022-10-17T17:56:01.844Z,45.50
2022-10-17T17:58:32.022Z,45.50
2022-10-17T18:01:02.075Z,45.50
2022-10-17T18:03:32.028Z,45.40
2022-10-17T18:06:01.901Z,45.40
2022-10-17T18:08:31.792Z,45.40
2022-10-17T18:11:01.825Z,45.40
2022-10-17T18:13:31.848Z,45.40
2022-10-17T18:16:02.464Z,45.40
2022-10-17T18:18:32.441Z,45.30
2022-10-17T18:21:03.528Z,45.20
2022-10-17T18:23:33.485Z,45.30
2022-10-17T18:26:03.480Z,45.00
2022-10-17T18:28:36.541Z,45.30
2022-10-17T18:31:20.619Z,45.30
2022-10-17T18:33:52.316Z,45.30
2022-10-17T18:36:22.321Z,45.40
2022-10-17T18:38:52.246Z,45.20
2022-10-17T18:41:23.683Z,45.20
2022-10-17T18:43:53.972Z,45.30
2022-10-17T18:46:28.802Z,45.30
2022-10-17T18:48:58.741Z,45.30
2022-10-17T18:51:28.826Z,45.30
2022-10-17T18:53:59.808Z,45.30
2022-10-17T18:56:29.728Z,45.30
2022-10-17T18:58:59.682Z,45.30
2022-10-17T19:01:30.024Z,45.30
2022-10-17T19:04:00.774Z,45.20
2022-10-17T19:06:33.169Z,45.20
2022-10-17T19:09:04.794Z,45.30
2022-10-17T19:11:35.289Z,45.30
2022-10-17T19:14:09.335Z,45.20
2022-10-17T19:16:39.298Z,45.20
2022-10-17T19:19:27.985Z,45.10
2022-10-17T19:21:57.891Z,45.10
2022-10-17T19:24:28.794Z,45.10
2022-10-17T19:27:00.484Z,45.00
2022-10-17T19:29:32.900Z,45.00
2022-10-17T19:32:03.778Z,44.90
2022-10-17T19:34:33.741Z,44.90
2022-10-17T19:37:03.669Z,44.90
2022-10-17T19:39:34.237Z,44.80
2022-10-17T19:42:06.843Z,44.80
2022-10-17T19:44:38.008Z,44.80
2022-10-17T19:47:07.897Z,44.70
2022-10-17T19:49:37.984Z,44.60
2022-10-17T19:52:07.836Z,44.60
2022-10-17T19:54:40.036Z,44.60
2022-10-17T19:57:10.612Z,44.60
2022-10-17T19:59:40.630Z,44.60
2022-10-17T20:02:11.662Z,44.70
2022-10-17T20:04:49.708Z,44.80
2022-10-17T20:07:29.911Z,44.70
2022-10-17T20:09:59.783Z,44.70
2022-10-17T20:12:29.947Z,44.80
2022-10-17T20:15:00.430Z,44.80
2022-10-17T20:17:30.403Z,44.70
2022-10-17T20:20:02.345Z,44.70
2022-10-17T20:22:34.958Z,44.60
2022-10-17T20:25:04.906Z,44.60
2022-10-17T20:27:34.823Z,44.60
2022-10-17T20:30:11.323Z,44.50
2022-10-17T20:32:55.788Z,44.60
2022-10-17T20:35:25.787Z,44.70
2022-10-17T20:37:55.722Z,44.60
2022-10-17T20:40:40.737Z,44.70
2022-10-17T20:43:12.018Z,44.70
2022-10-17T20:45:51.476Z,44.60
2022-10-17T20:48:22.048Z,44.60
2022-10-17T20:50:55.124Z,44.60
2022-10-17T20:53:36.714Z,44.40
2022-10-17T20:56:11.227Z,44.50
2022-10-17T20:58:41.198Z,44.50
2022-10-17T21:01:12.569Z,44.40
2022-10-17T21:03:46.391Z,44.50
2022-10-17T21:06:17.158Z,44.40
2022-10-17T21:08:47.931Z,44.40
2022-10-17T21:11:23.500Z,44.40
2022-10-17T21:14:01.757Z,44.20
2022-10-17T21:16:33.494Z,44.20
2022-10-17T21:19:04.034Z,44.30
2022-10-17T21:21:38.594Z,44.20
2022-10-17T21:24:13.569Z,44.20
2022-10-17T21:26:44.762Z,44.20
2022-10-17T21:29:15.260Z,44.30
2022-10-17T21:31:46.585Z,44.30
2022-10-17T21:34:22.368Z,44.30
2022-10-17T21:36:52.549Z,44.30
2022-10-17T21:39:24.203Z,44.10
2022-10-17T21:41:55.023Z,44.20
2022-10-17T21:44:26.579Z,44.20
2022-10-17T21:46:56.926Z,44.20
2022-10-17T21:49:27.331Z,44.20
2022-10-17T21:51:58.468Z,44.20
2022-10-17T21:54:28.670Z,44.20
2022-10-17T21:56:58.738Z,44.20
2022-10-17T21:59:28.810Z,44.10
2022-10-17T22:01:59.338Z,44.10
2022-10-17T22:04:29.575Z,44.20
2022-10-17T22:06:59.437Z,44.10
2022-10-17T22:09:29.459Z,44.20
2022-10-17T22:11:59.435Z,44.10
2022-10-17T22:14:29.977Z,44.10
2022-10-17T22:17:00.193Z,44.00
2022-10-17T22:19:30.367Z,44.10
2022-10-17T22:22:00.875Z,44.00
2022-10-17T22:24:31.010Z,44.00
2022-10-17T22:27:01.933Z,43.90
2022-10-17T22:29:32.130Z,43.90
2022-10-17T22:32:02.583Z,44.00
2022-10-17T22:34:32.645Z,43.90
2022-10-17T22:37:05.453Z,44.00
2022-10-17T22:39:35.463Z,44.00
2022-10-17T22:42:05.800Z,43.90
2022-10-17T22:44:35.674Z,43.90
2022-10-17T22:47:05.643Z,43.90
2022-10-17T22:49:35.766Z,43.90
2022-10-17T22:52:05.816Z,43.90
2022-10-17T22:54:35.898Z,43.90
2022-10-17T22:57:05.838Z,43.90
2022-10-17T22:59:35.737Z,44.00
2022-10-17T23:02:05.598Z,43.90
2022-10-17T23:04:35.951Z,43.90
2022-10-17T23:07:12.394Z,43.90
2022-10-17T23:09:43.059Z,43.90
2022-10-17T23:12:13.499Z,43.90
2022-10-17T23:14:44.777Z,43.90
2022-10-17T23:17:15.340Z,43.90
2022-10-17T23:19:45.250Z,43.80
2022-10-17T23:22:15.206Z,43.80
2022-10-17T23:24:45.120Z,43.80
2022-10-17T23:27:15.113Z,43.90
2022-10-17T23:29:45.036Z,43.90
2022-10-17T23:32:14.998Z,43.90
2022-10-17T23:34:44.892Z,43.80
2022-10-17T23:37:14.856Z,43.90
2022-10-17T23:39:44.693Z,43.90
2022-10-17T23:42:14.550Z,43.90
2022-10-17T23:44:44.475Z,43.80
2022-10-17T23:47:14.320Z,43.80
2022-10-17T23:49:44.165Z,43.70
2022-10-17T23:52:14.001Z,43.80
2022-10-17T23:54:43.953Z,43.80
2022-10-17T23:57:13.852Z,43.80
2022-10-17T23:59:43.755Z,43.70
